Flight Track Log - Related Links

Times and Time Zones

All times are in EDT time to prevent confusion due to time zone crossing. See the CXA883 flight status page for this flight to view local times or setup timezone preferences in your user account.

Time Position Orientation Groundspeed Altitude Reporting Facility
EDT Latitude Longitude Course Direction KTS MPH feet Rate Location/Type
Thu 06:56:00 AM 25.7749 120.0188 117° Southeast  Level Estimated
Thu 06:57:00 AM 25.7615 120.0484 117° Southeast  Level Estimated
Thu 06:58:00 AM 25.7481 120.0780 117° Southeast  Level Estimated
Thu 06:59:00 AM 25.7347 120.1076 117° Southeast  Level Estimated
Thu 07:00:00 AM 25.7213 120.1371 117° Southeast  Level Estimated
Thu 07:01:00 AM 25.7079 120.1667 117° Southeast  Level Estimated
Thu 07:02:00 AM 25.6945 120.1963 117° Southeast  Level Estimated
Thu 07:03:00 AM 25.6810 120.2258 117° Southeast  Level Estimated
Thu 07:04:00 AM 25.6676 120.2553 117° Southeast  Level Estimated
Thu 07:05:00 AM 25.6542 120.2849 117° Southeast  Level Estimated
Thu 07:06:00 AM 25.6407 120.3144 117° Southeast  Level Estimated
Thu 07:07:00 AM 25.6273 120.3439 117° Southeast  Level Estimated
Thu 07:08:00 AM 25.6138 120.3734 117° Southeast  Level Estimated
Thu 07:09:00 AM 25.6004 120.4029 117° Southeast  Level Estimated
Thu 07:10:00 AM 25.5869 120.4324 117° Southeast  Level Estimated
Thu 07:11:00 AM 25.5734 120.4619 117° Southeast  Level Estimated
Thu 07:12:00 AM 25.5600 120.4914 117° Southeast  Level Estimated
Thu 07:13:00 AM 25.5465 120.5209 117° Southeast  Level Estimated
Thu 07:14:00 AM 25.5330 120.5504 117° Southeast  Level Estimated
Thu 07:15:00 AM 25.5195 120.5798 117° Southeast  Level Estimated
Thu 07:16:00 AM 25.5060 120.6093 117° Southeast  Level Estimated
Thu 07:17:00 AM 25.4925 120.6388 117° Southeast  Level Estimated
Thu 07:18:00 AM 25.4790 120.6682 117° Southeast  Level Estimated
Thu 07:19:00 AM 25.4655 120.6976 117° Southeast  Level Estimated
Thu 07:20:00 AM 25.4519 120.7271 117° Southeast  Level Estimated
Thu 07:21:00 AM 25.4384 120.7565 117° Southeast  Level Estimated
Thu 07:22:00 AM 25.4249 120.7859 117° Southeast  Level Estimated
Thu 07:23:00 AM 25.4113 120.8153 117° Southeast  Level Estimated
Thu 07:24:00 AM 25.3978 120.8447 117° Southeast  Level Estimated
Thu 07:25:00 AM 25.3842 120.8742 117° Southeast  Level Estimated
Thu 07:26:00 AM 25.3707 120.9035 117° Southeast  Level Estimated
Thu 07:27:00 AM 25.3571 120.9329 117° Southeast  Level Estimated
Thu 07:28:00 AM 25.3435 120.9623 117° Southeast  Level Estimated
Thu 07:29:00 AM 25.3300 120.9917 117° Southeast  Level Estimated
Thu 07:30:00 AM 25.3164 121.0211 117° Southeast  Level Estimated
Thu 07:31:00 AM 25.3028 121.0504 117° Southeast  Level Estimated
Thu 07:32:00 AM 25.2892 121.0798 117° Southeast  Level Estimated
Thu 07:33:00 AM 25.2756 121.1091 117° Southeast  Level Estimated
Thu 07:34:00 AM 25.2620 121.1385 117° Southeast  Level Estimated
Thu 07:35:00 AM 25.2484 121.1678 117° Southeast  Level Estimated
Thu 07:36:00 AM 25.2348 121.1971 117° Southeast  Level Estimated
Thu 07:37:00 AM 25.2211 121.2264 117° Southeast  Level Estimated
Thu 07:38:00 AM 25.2075 121.2558 117° Southeast  Level Estimated
Thu 07:39:00 AM 25.1939 121.2851 117° Southeast  Level Estimated
Thu 07:40:00 AM 25.1802 121.3144 117° Southeast  Level Estimated
Thu 07:41:00 AM 25.1666 121.3437 117° Southeast  Level Estimated
Thu 07:42:00 AM 25.1529 121.3730 117° Southeast  Level Estimated
Thu 07:43:00 AM 25.1393 121.4022 117° Southeast  Level Estimated
Thu 07:44:00 AM 25.1256 121.4315 117° Southeast  Level Estimated
Thu 07:44:22 AM 25.2336 121.4146 250° West 227 261 7,300  Level FlightAware ADS-B
Thu 07:44:42 AM 25.2243 121.3915 245° Southwest 221 254 7,000 -936 Descending FlightAware ADS-B
Thu 07:47:15 AM 25.1136 121.2848 171° South 194 223 4,600 -941 Descending FlightAware ADS-B
Thu 07:49:00 AM 25.1042 121.3415 100° East  Level Estimated
Thu 07:50:00 AM 25.0989 121.3739 100° East  Level Estimated
Thu 07:51:00 AM 25.0935 121.4063 100° East  Level Estimated
Thu 07:52:00 AM 25.0882 121.4387 100° East  Level Estimated
Thu 07:53:00 AM 25.0828 121.4711 100° East  Level Estimated
Thu 07:54:00 AM 25.0774 121.5035 100° East  Level Estimated
Thu 07:55:00 AM 25.0721 121.5359 100° East  Level Estimated
Thu 07:56:00 AM 25.0694 121.5517 100° East  Level Estimated
Thu 07:57:00 AM 25.0694 121.5517 North  Level Estimated
Thu 07:58:00 AM 25.0694 121.5517 North  Level Estimated
Thu 07:59:00 AM 25.0694 121.5517 North  Level Estimated
Thu 08:00:00 AM 25.0694 121.5517 North  Level Estimated
Thu 08:01:00 AM 25.0694 121.5517 North  Level Estimated

Login

Don't have an account? Register now (free) for customized features, flight alerts, and more!